Terminal Aerodrome Forecast
Issued by NWS Albany, NY

Home | Current Version | Previous Version | Text Only | Print | Product List | Glossary On
Versions: 1 2 3 4 5 6 7 8 9 10 11 12 13 14 15 16 17 18 19 20 21 22 23 24
000
FTUS41 KALY 191751
TAFALB
TAF
KALB 191751Z 1918/2018 17016G25KT P6SM SCT100 BKN200
     FM192000 18015G25KT 4SM -RA BR SCT020 OVC040
      TEMPO 1920/1924 2SM -RA BR BKN020
     FM200000 18010G18KT 2SM -RA BR SCT008 OVC020
     FM200400 17009KT 1 1/2SM -RA BR BKN006 OVC015 WS020/22040KT
     FM201200 18012G20KT 5SM BR VCSH SCT015 OVC040=

USA.gov is the U.S. government's official web portal to all federal, state and local government web resources and services.